Terminal Aerodrome Forecast
Issued by NWS

Home | Current Version | Previous Version | Text Only | Print | Product List | Glossary Off
Versions: 1 2 3 4 5 6 7 8 9 10 11 12 13 14 15 16 17 18 19

000
FTUS43 KMPX 281120
TAFAXN
TAF
KAXN 281120Z 2812/2912 19004KT 6SM BR FEW012 OVC200
      TEMPO 2812/2814 3SM BR BKN012
     FM281400 19008KT P6SM SCT012
     FM290000 18008KT P6SM BKN250=

USA.gov is the U.S. government's official web portal to all federal, state and local government web resources and services.